| time (UTC) | temp C | wind direction | speed KPH | gust KPH | rain 1hr cm | rain 24hr cm | rain mn cm | humidity % | barometer mb |
| 20260906123007 | 21 | 106 | 0.0 | 0.0 | 0.00 | 2.08 | 1.30 | 98 | 1010.3 |
| 20260906121504 | 20 | 190 | 0.0 | 0.0 | 0.00 | 2.08 | 1.30 | 98 | 1010.2 |
| 20260906120005 | 20 | 190 | 0.0 | 0.0 | 0.00 | 2.08 | 1.30 | 98 | 1010.1 |
| 20260906114505 | 20 | 190 | 0.0 | 0.0 | 0.00 | 2.08 | 1.30 | 98 | 1010.0 |
| 20260906113002 | 20 | 190 | 0.0 | 0.0 | 0.00 | 2.08 | 1.30 | 98 | 1010.0 |
| 20260906111601 | 20 | 190 | 0.0 | 0.0 | 0.00 | 2.08 | 1.30 | 98 | 1009.9 |
| 20260906111501 | 20 | 190 | 0.0 | 0.0 | 0.00 | 2.08 | 1.30 | 98 | 1010.0 |
| 20260906110100 | 20 | 190 | 0.0 | 0.0 | 0.00 | 2.08 | 1.30 | 97 | 1009.9 |
| 20260906104559 | 20 | 190 | 0.0 | 0.0 | 0.00 | 2.08 | 1.30 | 98 | 1009.6 |
| 20260906103058 | 20 | 190 | 0.0 | 0.0 | 0.00 | 2.08 | 1.30 | 98 | 1009.4 |
| 20260906101602 | 21 | 190 | 0.0 | 0.0 | 0.00 | 2.08 | 1.30 | 97 | 1009.3 |
| 20260906100056 | 21 | 190 | 0.0 | 0.0 | 0.00 | 2.08 | 1.30 | 98 | 1009.6 |
| 20260906094555 | 21 | 190 | 0.0 | 0.0 | 0.00 | 2.08 | 1.30 | 97 | 1009.9 |
| 20260906093054 | 21 | 190 | 0.0 | 0.0 | 0.00 | 2.08 | 1.30 | 97 | 1010.0 |
| 20260906091553 | 21 | 190 | 0.0 | 0.0 | 0.00 | 2.08 | 1.30 | 98 | 1009.5 |
| 20260906090052 | 21 | 190 | 0.0 | 0.0 | 0.00 | 2.08 | 1.30 | 97 | 1009.3 |
| 20260906084550 | 21 | 190 | 0.0 | 0.0 | 0.00 | 2.08 | 1.30 | 97 | 1009.3 |
| 20260906083050 | 21 | 190 | 0.0 | 0.0 | 0.00 | 2.08 | 1.30 | 97 | 1009.2 |
| 20260906081552 | 21 | 190 | 0.0 | 0.0 | 0.00 | 2.08 | 1.30 | 97 | 1009.3 |
| 20260906080047 | 21 | 190 | 0.0 | 0.0 | 0.00 | 2.08 | 1.30 | 97 | 1009.1 |
| 20260906074548 | 21 | 190 | 0.0 | 0.0 | 0.00 | 2.08 | 1.30 | 97 | 1009.2 |
| 20260906073046 | 22 | 190 | 0.0 | 0.0 | 0.00 | 2.08 | 1.30 | 97 | 1009.6 |
| 20260906071542 | 22 | 190 | 0.0 | 0.0 | 0.00 | 2.08 | 1.30 | 97 | 1009.7 |
| 20260906070040 | 22 | 190 | 0.0 | 0.0 | 0.03 | 2.08 | 1.30 | 97 | 1010.1 |
| 20260906064538 | 22 | 190 | 0.0 | 0.0 | 0.03 | 2.08 | 1.30 | 97 | 1010.4 |
| 20260906063036 | 22 | 190 | 0.0 | 0.0 | 0.30 | 2.08 | 1.30 | 97 | 1010.9 |
| 20260906061534 | 22 | 152 | 0.0 | 0.0 | 0.94 | 2.08 | 1.30 | 96 | 1011.4 |
| 20260906060039 | 22 | 194 | 0.0 | 0.0 | 1.24 | 2.06 | 1.27 | 96 | 1010.9 |
| 20260906054532 | 22 | 309 | 0.0 | 0.0 | 1.83 | 2.06 | 1.27 | 96 | 1011.4 |
| 20260906053032 | 22 | 307 | 0.0 | 16.1 | 1.50 | 1.73 | 0.94 | 95 | 1011.1 |
| 20260906051525 | 23 | 298 | 0.0 | 12.9 | 0.91 | 1.14 | 0.36 | 94 | 1011.5 |
| 20260906050022 | 23 | 305 | 0.0 | 1.6 | 0.56 | 0.79 | 0.00 | 94 | 1010.6 |
| 20260906044520 | 22 | 242 | 0.0 | 0.0 | 0.00 | 0.23 | 0.23 | 96 | 1010.2 |
| 20260906043020 | 22 | 236 | 0.0 | 0.0 | 0.00 | 0.23 | 0.23 | 97 | 1009.7 |
| 20260906041526 | 22 | 236 | 0.0 | 0.0 | 0.00 | 0.23 | 0.23 | 96 | 1009.8 |
| 20260906040028 | 22 | 236 | 0.0 | 0.0 | 0.00 | 0.23 | 0.23 | 96 | 1009.8 |
| 20260906034526 | 22 | 236 | 0.0 | 0.0 | 0.00 | 0.23 | 0.23 | 96 | 1010.0 |
| 20260906033018 | 22 | 236 | 0.0 | 0.0 | 0.00 | 0.23 | 0.23 | 96 | 1010.0 |
| 20260906031532 | 22 | 302 | 0.0 | 0.0 | 0.00 | 0.23 | 0.23 | 96 | 1010.0 |
| 20260906030017 | 22 | 302 | 0.0 | 0.0 | 0.00 | 0.23 | 0.23 | 95 | 1009.8 |
| 20260906024517 | 22 | 302 | 0.0 | 0.0 | 0.00 | 0.23 | 0.23 | 95 | 1009.6 |
| 20260906023017 | 23 | 302 | 0.0 | 0.0 | 0.00 | 0.23 | 0.23 | 94 | 1009.5 |
| 20260906021518 | 23 | 302 | 0.0 | 0.0 | 0.00 | 0.23 | 0.23 | 94 | 1009.1 |
| 20260906020015 | 23 | 302 | 0.0 | 0.0 | 0.00 | 0.23 | 0.23 | 95 | 1008.9 |
| 20260906014522 | 23 | 299 | 0.0 | 0.0 | 0.00 | 0.23 | 0.23 | 95 | 1008.8 |
| 20260906013014 | 23 | 176 | 0.0 | 0.0 | 0.00 | 0.23 | 0.23 | 95 | 1008.2 |
| 20260906011514 | 23 | 176 | 0.0 | 0.0 | 0.00 | 0.23 | 0.23 | 94 | 1008.5 |
| 20260906010013 | 23 | 176 | 0.0 | 0.0 | 0.00 | 0.23 | 0.23 | 94 | 1008.8 |
| 20260906004512 | 23 | 176 | 0.0 | 0.0 | 0.00 | 0.23 | 0.23 | 94 | 1008.8 |
| 20260906003012 | 24 | 176 | 0.0 | 0.0 | 0.00 | 0.23 | 0.23 | 93 | 1008.8 |
| 20260906001513 | 24 | 176 | 0.0 | 0.0 | 0.00 | 0.23 | 0.23 | 93 | 1008.7 |
| 20260906000011 | 24 | 113 | 0.0 | 0.0 | 0.00 | 0.23 | 0.23 | 92 | 1008.7 |
| 20260905234511 | 24 | 113 | 0.0 | 0.0 | 0.00 | 0.23 | 0.23 | 91 | 1008.9 |
| 20260905233010 | 25 | 360 | 0.0 | 1.6 | 0.00 | 0.23 | 0.23 | 93 | 1008.6 |
| 20260905231510 | 25 | 175 | 0.0 | 0.0 | 0.00 | 0.23 | 0.23 | 94 | 1008.3 |
| 20260905230009 | 26 | 178 | 0.0 | 0.0 | 0.23 | 0.23 | 0.23 | 92 | 1008.4 |
| 20260905224510 | 25 | 178 | 0.0 | 0.0 | 0.23 | 0.23 | 0.23 | 92 | 1008.1 |
| 20260905223008 | 25 | 178 | 0.0 | 0.0 | 0.23 | 0.23 | 0.23 | 91 | 1008.0 |
| 20260905221506 | 25 | 207 | 0.0 | 0.0 | 0.23 | 0.23 | 0.23 | 86 | 1008.9 |
| 20260905220005 | 29 | 311 | 0.0 | 3.2 | 0.00 | 0.00 | 0.00 | 66 | 1009.2 |
| 20260905214503 | 32 | 173 | 0.0 | 8.0 | 0.00 | 0.00 | 0.00 | 56 | 1009.1 |
| 20260905213004 | 35 | 236 | 0.0 | 0.0 | 0.00 | 0.00 | 0.00 | 56 | 1008.4 |
| 20260905211502 | 35 | 235 | 0.0 | 0.0 | 0.00 | 0.00 | 0.00 | 50 | 1008.4 |
| 20260905210002 | 35 | 244 | 0.0 | 0.0 | 0.00 | 0.00 | 0.00 | 49 | 1008.4 |
| 20260905204600 | 35 | 256 | 0.0 | 0.0 | 0.00 | 0.00 | 0.00 | 49 | 1008.2 |
| 20260905203059 | 36 | 334 | 0.0 | 0.0 | 0.00 | 0.00 | 0.00 | 50 | 1008.5 |
| 20260905201556 | 35 | 334 | 0.0 | 0.0 | 0.00 | 0.00 | 0.00 | 50 | 1008.7 |
| 20260905200116 | 35 | 42 | 0.0 | 0.0 | 0.00 | 0.00 | 0.00 | 51 | 1008.9 |
| 20260905194551 | 35 | 5 | 0.0 | 0.0 | 0.00 | 0.00 | 0.00 | 56 | 1009.1 |
| 20260905193047 | 35 | 326 | 0.0 | 0.0 | 0.00 | 0.00 | 0.00 | 57 | 1009.6 |
| 20260905191546 | 34 | 309 | 0.0 | 0.0 | 0.00 | 0.00 | 0.00 | 57 | 1009.8 |
| 20260905190051 | 34 | 301 | 0.0 | 0.0 | 0.00 | 0.00 | 0.00 | 56 | 1009.9 |
| 20260905184541 | 34 | 33 | 0.0 | 0.0 | 0.00 | 0.00 | 0.00 | 60 | 1009.9 |
| 20260905183038 | 33 | 325 | 0.0 | 0.0 | 0.00 | 0.00 | 0.00 | 58 | 1010.1 |
| 20260905181535 | 33 | 338 | 0.0 | 0.0 | 0.00 | 0.00 | 0.00 | 62 | 1010.4 |
| 20260905180047 | 33 | 323 | 0.0 | 0.0 | 0.00 | 0.00 | 0.00 | 59 | 1010.6 |
| 20260905174531 | 33 | 337 | 0.0 | 3.2 | 0.00 | 0.00 | 0.00 | 65 | 1010.7 |
| 20260905173028 | 33 | 323 | 0.0 | 1.6 | 0.00 | 0.00 | 0.00 | 62 | 1010.8 |
| 20260905171540 | 32 | 355 | 0.0 | 0.0 | 0.00 | 0.00 | 0.00 | 63 | 1010.8 |
| 20260905170025 | 32 | 24 | 0.0 | 0.0 | 0.00 | 0.00 | 0.00 | 67 | 1011.1 |
| 20260905164521 | 32 | 332 | 0.0 | 1.6 | 0.00 | 0.00 | 0.00 | 65 | 1011.3 |
| 20260905163019 | 31 | 324 | 0.0 | 0.0 | 0.00 | 0.00 | 0.00 | 66 | 1011.4 |
| 20260905161524 | 31 | 148 | 0.0 | 0.0 | 0.00 | 0.00 | 0.00 | 69 | 1011.6 |
| 20260905160019 | 31 | 148 | 0.0 | 0.0 | 0.00 | 0.00 | 0.00 | 69 | 1011.7 |
| 20260905154512 | 31 | 148 | 0.0 | 0.0 | 0.00 | 0.00 | 0.00 | 70 | 1011.7 |
| 20260905153009 | 30 | 148 | 0.0 | 0.0 | 0.00 | 0.00 | 0.00 | 71 | 1011.7 |
| 20260905151506 | 30 | 148 | 0.0 | 0.0 | 0.00 | 0.00 | 0.00 | 76 | 1011.8 |
| 20260905150004 | 29 | 148 | 0.0 | 0.0 | 0.00 | 0.00 | 0.00 | 75 | 1011.9 |
| 20260905144558 | 28 | 148 | 0.0 | 0.0 | 0.00 | 0.00 | 0.00 | 82 | 1012.0 |
| 20260905143055 | 27 | 148 | 0.0 | 0.0 | 0.00 | 0.00 | 0.00 | 87 | 1012.0 |
| 20260905141549 | 26 | 148 | 0.0 | 0.0 | 0.00 | 0.00 | 0.00 | 87 | 1012.0 |
| 20260905140048 | 26 | 148 | 0.0 | 0.0 | 0.00 | 0.00 | 0.00 | 93 | 1012.0 |
| 20260905134547 | 25 | 148 | 0.0 | 0.0 | 0.00 | 0.00 | 0.00 | 95 | 1011.9 |
| 20260905133041 | 25 | 148 | 0.0 | 0.0 | 0.00 | 0.00 | 0.00 | 97 | 1012.1 |
| 20260905131538 | 24 | 163 | 0.0 | 0.0 | 0.00 | 0.00 | 0.00 | 98 | 1012.2 |
| 20260905130034 | 23 | 163 | 0.0 | 0.0 | 0.00 | 0.00 | 0.00 | 98 | 1012.2 |
| 20260905124531 | 23 | 159 | 0.0 | 0.0 | 0.00 | 0.00 | 0.00 | 98 | 1012.2 |